Terminal Aerodrome Forecast
Issued by NWS Corpus Christi, TX

Home | Current Version | Previous Version | Text Only | Print | Product List | Glossary On
Versions: 1 2 3 4 5 6 7 8 9 10 11 12 13 14 15
000
FTUS44 KCRP 222300
TAFVCT
TAF
KVCT 222320Z 2300/2324 07008KT P6SM VCSH SCT060
     FM230200 04005KT P6SM FEW028
      TEMPO 2311/2314 5SM BR
     FM231900 09009KT P6SM SKC=

USA.gov is the U.S. government's official web portal to all federal, state and local government web resources and services.